Time,TemperatureF,DewpointF,PressureIn,WindDirection,WindDirectionDegrees,WindSpeedMPH,WindSpeedGustMPH,Humidity,HourlyPrecipIn,Conditions,Clouds,dailyrainin,SoftwareType,DateUTC
2013-07-27 00:02:00,65.8,49.7,30.02,SSW,211,3.0,3.0,56,0.00,CLR,CLR,0.00,WeatherDisplay:10.34,2013-07-27 06:02:00,
2013-07-27 00:07:00,65.9,49.3,30.02,SSW,211,4.0,4.0,55,0.00,CLR,CLR,0.00,WeatherDisplay:10.34,2013-07-27 06:07:00,
2013-07-27 00:12:00,66.3,51.1,30.02,SSW,211,0.0,0.0,58,0.00,CLR,CLR,0.00,WeatherDisplay:10.34,2013-07-27 06:12:00,
2013-07-27 00:17:00,66.5,51.3,30.02,SSW,211,0.0,0.0,58,0.00,CLR,CLR,0.00,WeatherDisplay:10.34,2013-07-27 06:17:00,
2013-07-27 00:22:00,66.6,52.3,30.03,SSW,211,0.0,1.0,60,0.00,CLR,CLR,0.00,WeatherDisplay:10.34,2013-07-27 06:22:00,
2013-07-27 00:27:00,66.6,52.7,30.03,SSW,211,0.0,0.0,61,0.00,CLR,CLR,0.00,WeatherDisplay:10.34,2013-07-27 06:27:00,
2013-07-27 00:32:00,66.5,53.1,30.03,SSW,210,0.0,0.0,62,0.00,CLR,CLR,0.00,WeatherDisplay:10.34,2013-07-27 06:32:00,
2013-07-27 00:37:00,66.3,53.8,30.03,SSW,210,0.0,1.0,64,0.00,CLR,CLR,0.00,WeatherDisplay:10.34,2013-07-27 06:37:00,
2013-07-27 00:42:00,66.2,53.7,30.03,SSW,210,1.0,1.0,64,0.00,CLR,CLR,0.00,WeatherDisplay:10.34,2013-07-27 06:42:00,
2013-07-27 00:47:00,66.0,53.5,30.03,SSW,211,0.0,0.0,64,0.00,CLR,CLR,0.00,WeatherDisplay:10.34,2013-07-27 06:47:00,
2013-07-27 00:52:00,65.8,52.4,30.03,SSW,211,0.0,0.0,62,0.00,CLR,CLR,0.00,WeatherDisplay:10.34,2013-07-27 06:52:00,
2013-07-27 00:57:00,65.8,52.4,30.03,SSW,211,0.0,1.0,62,0.00,CLR,CLR,0.00,WeatherDisplay:10.34,2013-07-27 06:57:00,
2013-07-27 01:02:00,65.7,52.3,30.03,SSW,211,0.0,0.0,62,0.00,CLR,CLR,0.00,WeatherDisplay:10.34,2013-07-27 07:02:00,
2013-07-27 01:07:00,65.7,51.9,30.03,SSW,211,0.0,0.0,61,0.00,CLR,CLR,0.00,WeatherDisplay:10.34,2013-07-27 07:07:00,
2013-07-27 01:12:00,65.7,51.9,30.02,SSW,211,0.0,0.0,61,0.00,CLR,CLR,0.00,WeatherDisplay:10.34,2013-07-27 07:12:00,
2013-07-27 01:17:00,65.7,51.4,30.02,SSW,211,0.0,0.0,60,0.00,CLR,CLR,0.00,WeatherDisplay:10.34,2013-07-27 07:17:00,
2013-07-27 01:22:00,65.7,51.4,30.02,SSW,211,0.0,0.0,60,0.00,CLR,CLR,0.00,WeatherDisplay:10.34,2013-07-27 07:22:00,
2013-07-27 01:27:00,65.8,53.3,30.02,SSW,211,0.0,0.0,64,0.00,CLR,CLR,0.00,WeatherDisplay:10.34,2013-07-27 07:27:00,
2013-07-27 01:32:00,65.8,53.3,30.02,SSW,211,0.0,0.0,64,0.00,CLR,CLR,0.00,WeatherDisplay:10.34,2013-07-27 07:32:00,
2013-07-27 01:37:00,65.8,53.3,30.02,SSW,211,0.0,0.0,64,0.00,CLR,CLR,0.00,WeatherDisplay:10.34,2013-07-27 07:37:00,
2013-07-27 01:42:00,65.8,53.3,30.02,SSW,211,0.0,1.0,64,0.00,CLR,CLR,0.00,WeatherDisplay:10.34,2013-07-27 07:42:00,
2013-07-27 01:47:00,65.6,51.8,30.02,NNW,331,2.0,2.0,61,0.00,CLR,CLR,0.00,WeatherDisplay:10.34,2013-07-27 07:47:00,
2013-07-27 01:52:00,65.6,51.3,30.01,NNW,331,4.0,5.0,60,0.00,CLR,CLR,0.00,WeatherDisplay:10.34,2013-07-27 07:52:00,
2013-07-27 01:57:00,65.6,51.8,30.01,NNW,334,2.0,3.0,61,0.00,CLR,CLR,0.00,WeatherDisplay:10.34,2013-07-27 07:57:00,
2013-07-27 02:02:00,65.4,52.0,30.01,NNW,334,6.0,6.0,62,0.00,CLR,CLR,0.00,WeatherDisplay:10.34,2013-07-27 08:02:00,
2013-07-27 02:07:00,65.1,51.8,30.01,NNW,342,4.0,4.0,62,0.00,CLR,CLR,0.00,WeatherDisplay:10.34,2013-07-27 08:07:00,
2013-07-27 02:12:00,65.2,51.0,30.00,NW,313,4.0,5.0,60,0.00,CLR,CLR,0.00,WeatherDisplay:10.34,2013-07-27 08:12:00,
2013-07-27 02:17:00,65.2,51.4,30.01,WNW,303,1.0,2.0,61,0.00,CLR,CLR,0.00,WeatherDisplay:10.34,2013-07-27 08:17:00,
2013-07-27 02:22:00,65.2,51.0,30.01,NW,318,1.0,2.0,60,0.00,CLR,CLR,0.00,WeatherDisplay:10.34,2013-07-27 08:22:00,
2013-07-27 02:27:00,65.3,51.1,30.01,WNW,303,0.0,0.0,60,0.00,CLR,CLR,0.00,WeatherDisplay:10.34,2013-07-27 08:27:00,
2013-07-27 02:33:00,65.3,50.6,30.01,West,280,4.0,5.0,59,0.00,CLR,CLR,0.00,WeatherDisplay:10.34,2013-07-27 08:33:00,
2013-07-27 02:38:00,65.3,50.6,30.02,West,281,2.0,2.0,59,0.00,CLR,CLR,0.00,WeatherDisplay:10.34,2013-07-27 08:38:00,
2013-07-27 02:43:00,65.4,50.7,30.01,West,281,0.0,1.0,59,0.00,CLR,CLR,0.00,WeatherDisplay:10.34,2013-07-27 08:43:00,
2013-07-27 02:48:00,65.4,50.7,30.02,ENE,61,2.0,2.0,59,0.00,CLR,CLR,0.00,WeatherDisplay:10.34,2013-07-27 08:48:00,
2013-07-27 02:53:00,65.4,51.1,30.02,NW,326,3.0,3.0,60,0.00,CLR,CLR,0.00,WeatherDisplay:10.34,2013-07-27 08:53:00,
2013-07-27 02:58:00,65.4,50.7,30.02,NNW,340,5.0,5.0,59,0.00,CLR,CLR,0.00,WeatherDisplay:10.34,2013-07-27 08:58:00,
2013-07-27 03:03:00,65.4,50.7,30.02,North,350,6.0,6.0,59,0.00,CLR,CLR,0.00,WeatherDisplay:10.34,2013-07-27 09:03:00,
2013-07-27 03:08:00,65.3,51.1,30.02,NNW,339,4.0,4.0,60,0.00,CLR,CLR,0.00,WeatherDisplay:10.34,2013-07-27 09:08:00,
2013-07-27 03:13:00,65.2,51.0,30.02,NNW,341,4.0,4.0,60,0.00,CLR,CLR,0.00,WeatherDisplay:10.34,2013-07-27 09:13:00,
2013-07-27 03:18:00,65.0,50.8,30.02,NNW,341,4.0,4.0,60,0.00,CLR,CLR,0.00,WeatherDisplay:10.34,2013-07-27 09:18:00,
2013-07-27 03:23:00,64.7,50.9,30.02,NNW,341,1.0,3.0,61,0.00,CLR,CLR,0.00,WeatherDisplay:10.34,2013-07-27 09:23:00,
2013-07-27 03:28:00,64.4,51.1,30.01,NNW,341,1.0,2.0,62,0.00,CLR,CLR,0.00,WeatherDisplay:10.34,2013-07-27 09:28:00,
2013-07-27 03:33:00,64.2,50.5,30.02,NNW,341,1.0,2.0,61,0.00,CLR,CLR,0.00,WeatherDisplay:10.34,2013-07-27 09:33:00,
2013-07-27 03:38:00,64.1,50.4,30.02,NNW,341,0.0,0.0,61,0.00,CLR,CLR,0.00,WeatherDisplay:10.34,2013-07-27 09:38:00,
2013-07-27 03:43:00,64.1,50.8,30.02,NNW,341,1.0,2.0,62,0.00,CLR,CLR,0.00,WeatherDisplay:10.34,2013-07-27 09:43:00,
2013-07-27 03:48:00,63.9,51.1,30.02,West,260,3.0,5.0,63,0.00,CLR,CLR,0.00,WeatherDisplay:10.34,2013-07-27 09:48:00,
2013-07-27 03:53:00,63.7,51.7,30.02,West,263,1.0,1.0,65,0.00,CLR,CLR,0.00,WeatherDisplay:10.34,2013-07-27 09:53:00,
2013-07-27 03:58:00,63.4,51.8,30.02,SW,215,3.0,3.0,66,0.00,CLR,CLR,0.00,WeatherDisplay:10.34,2013-07-27 09:58:00,
2013-07-27 04:03:00,62.9,52.2,30.02,SW,217,1.0,2.0,68,0.00,CLR,CLR,0.00,WeatherDisplay:10.34,2013-07-27 10:03:00,
2013-07-27 04:08:00,62.5,51.8,30.02,SW,217,0.0,1.0,68,0.00,CLR,CLR,0.00,WeatherDisplay:10.34,2013-07-27 10:08:00,
2013-07-27 04:13:00,62.2,51.1,30.02,WNW,291,1.0,3.0,67,0.00,CLR,CLR,0.00,WeatherDisplay:10.34,2013-07-27 10:13:00,
2013-07-27 04:18:00,62.0,50.1,30.02,WNW,288,1.0,3.0,65,0.00,CLR,CLR,0.00,WeatherDisplay:10.34,2013-07-27 10:18:00,
2013-07-27 04:23:00,61.9,50.0,30.02,WNW,290,1.0,2.0,65,0.00,CLR,CLR,0.00,WeatherDisplay:10.34,2013-07-27 10:23:00,
2013-07-27 04:28:00,61.8,49.9,30.02,WNW,293,1.0,2.0,65,0.00,CLR,CLR,0.00,WeatherDisplay:10.34,2013-07-27 10:28:00,
2013-07-27 04:33:00,61.8,49.9,30.02,WNW,299,1.0,3.0,65,0.00,CLR,CLR,0.00,WeatherDisplay:10.34,2013-07-27 10:33:00,
2013-07-27 04:38:00,61.8,49.9,30.02,WNW,300,2.0,2.0,65,0.00,CLR,CLR,0.00,WeatherDisplay:10.34,2013-07-27 10:38:00,
2013-07-27 04:43:00,61.6,49.7,30.02,NW,304,1.0,5.0,65,0.00,CLR,CLR,0.00,WeatherDisplay:10.34,2013-07-27 10:43:00,
2013-07-27 04:48:00,61.5,49.6,30.02,NW,324,1.0,7.0,65,0.00,CLR,CLR,0.00,WeatherDisplay:10.34,2013-07-27 10:48:00,
2013-07-27 04:53:00,61.5,49.6,30.02,WNW,294,4.0,7.0,65,0.00,CLR,CLR,0.00,WeatherDisplay:10.34,2013-07-27 10:53:00,
2013-07-27 04:58:00,61.4,49.1,30.02,WNW,286,1.0,2.0,64,0.00,CLR,CLR,0.00,WeatherDisplay:10.34,2013-07-27 10:58:00,
2013-07-27 05:03:00,61.3,49.0,30.02,NW,322,3.0,5.0,64,0.00,OVC,OVC,0.00,WeatherDisplay:10.34,2013-07-27 11:03:00,
2013-07-27 05:08:00,61.2,48.5,30.02,West,279,2.0,3.0,63,0.00,OVC,OVC,0.00,WeatherDisplay:10.34,2013-07-27 11:08:00,
2013-07-27 05:13:00,61.1,48.4,30.02,WNW,284,2.0,2.0,63,0.00,OVC,OVC,0.00,WeatherDisplay:10.34,2013-07-27 11:13:00,
2013-07-27 05:18:00,61.1,48.0,30.02,West,263,5.0,7.0,62,0.00,OVC,OVC,0.00,WeatherDisplay:10.34,2013-07-27 11:18:00,
2013-07-27 05:23:00,61.2,48.1,30.01,WNW,296,4.0,7.0,62,0.00,OVC,OVC,0.00,WeatherDisplay:10.34,2013-07-27 11:23:00,
2013-07-27 05:28:00,61.3,48.2,30.01,WSW,249,4.0,5.0,62,0.00,OVC,OVC,0.00,WeatherDisplay:10.34,2013-07-27 11:28:00,
2013-07-27 05:33:00,61.3,48.2,30.01,WSW,246,1.0,2.0,62,0.00,OVC,OVC,0.00,WeatherDisplay:10.34,2013-07-27 11:33:00,
2013-07-27 05:38:00,61.2,48.1,30.01,WSW,246,0.0,0.0,62,0.00,OVC,OVC,0.00,WeatherDisplay:10.34,2013-07-27 11:38:00,
2013-07-27 05:43:00,61.2,48.1,30.01,WSW,246,1.0,2.0,62,0.00,OVC,OVC,0.00,WeatherDisplay:10.34,2013-07-27 11:43:00,
2013-07-27 05:48:00,61.1,48.4,30.02,SW,229,7.0,7.0,63,0.00,OVC,OVC,0.00,WeatherDisplay:10.34,2013-07-27 11:48:00,
2013-07-27 05:53:00,60.8,49.0,30.02,SW,227,6.0,6.0,65,0.00,OVC,OVC,0.00,WeatherDisplay:10.34,2013-07-27 11:53:00,
2013-07-27 05:58:00,60.3,49.3,30.02,SSW,211,4.0,5.0,67,0.00,OVC,OVC,0.00,WeatherDisplay:10.34,2013-07-27 11:58:00,
2013-07-27 06:03:00,59.7,49.1,30.02,SSW,195,5.0,5.0,68,0.00,OVC,OVC,0.00,WeatherDisplay:10.34,2013-07-27 12:03:00,
2013-07-27 06:08:00,58.7,49.3,30.02,South,186,1.0,1.0,71,0.00,OVC,OVC,0.00,WeatherDisplay:10.34,2013-07-27 12:08:00,
2013-07-27 06:13:00,58.0,49.4,30.02,South,175,3.0,3.0,73,0.00,OVC,OVC,0.00,WeatherDisplay:10.34,2013-07-27 12:13:00,
2013-07-27 06:18:00,57.6,49.0,30.02,South,175,0.0,0.0,73,0.00,OVC,OVC,0.00,WeatherDisplay:10.34,2013-07-27 12:18:00,
2013-07-27 06:23:00,57.4,49.2,30.02,South,175,0.0,2.0,74,0.00,OVC,OVC,0.00,WeatherDisplay:10.34,2013-07-27 12:23:00,
2013-07-27 06:28:00,57.2,49.0,30.02,South,175,0.0,0.0,74,0.00,OVC,OVC,0.00,WeatherDisplay:10.34,2013-07-27 12:28:00,
2013-07-27 06:33:00,57.1,48.9,30.02,South,175,0.0,0.0,74,0.00,CLR,CLR,0.00,WeatherDisplay:10.34,2013-07-27 12:33:00,
2013-07-27 06:38:00,57.1,48.9,30.02,South,175,0.0,0.0,74,0.00,CLR,CLR,0.00,WeatherDisplay:10.34,2013-07-27 12:38:00,
2013-07-27 06:43:00,57.0,49.2,30.02,South,175,0.0,1.0,75,0.00,CLR,CLR,0.00,WeatherDisplay:10.34,2013-07-27 12:43:00,
2013-07-27 06:48:00,57.1,50.0,30.02,South,175,1.0,1.0,77,0.00,CLR,CLR,0.00,WeatherDisplay:10.34,2013-07-27 12:48:00,
2013-07-27 06:53:00,57.1,50.0,30.02,South,175,0.0,1.0,77,0.00,CLR,CLR,0.00,WeatherDisplay:10.34,2013-07-27 12:53:00,
2013-07-27 06:58:00,57.3,50.5,30.02,South,175,1.0,1.0,78,0.00,CLR,CLR,0.00,WeatherDisplay:10.34,2013-07-27 12:58:00,
2013-07-27 07:03:00,57.5,50.3,30.02,South,175,0.0,0.0,77,0.00,CLR,CLR,0.00,WeatherDisplay:10.34,2013-07-27 13:03:00,
2013-07-27 07:08:00,57.7,50.5,30.03,South,175,0.0,0.0,77,0.00,CLR,CLR,0.00,WeatherDisplay:10.34,2013-07-27 13:08:00,
2013-07-27 07:13:00,58.1,51.3,30.03,South,175,3.0,3.0,78,0.00,CLR,CLR,0.00,WeatherDisplay:10.34,2013-07-27 13:13:00,
2013-07-27 07:18:00,58.6,51.8,30.03,South,175,0.0,0.0,78,0.00,CLR,CLR,0.00,WeatherDisplay:10.34,2013-07-27 13:18:00,
2013-07-27 07:23:00,59.0,51.8,30.02,South,175,0.0,0.0,77,0.00,CLR,CLR,0.00,WeatherDisplay:10.34,2013-07-27 13:23:00,
2013-07-27 07:28:00,59.4,52.5,30.02,South,175,0.0,1.0,78,0.00,CLR,CLR,0.00,WeatherDisplay:10.34,2013-07-27 13:28:00,
2013-07-27 07:33:00,60.3,52.7,30.03,South,175,2.0,2.0,76,0.00,CLR,CLR,0.00,WeatherDisplay:10.34,2013-07-27 13:33:00,
2013-07-27 07:38:00,61.0,52.7,30.03,South,175,2.0,2.0,74,0.00,CLR,CLR,0.00,WeatherDisplay:10.34,2013-07-27 13:38:00,
2013-07-27 07:43:00,61.6,52.1,30.03,South,175,2.0,2.0,71,0.00,CLR,CLR,0.00,WeatherDisplay:10.34,2013-07-27 13:43:00,
2013-07-27 07:48:00,62.3,52.8,30.03,South,175,4.0,4.0,71,0.00,CLR,CLR,0.00,WeatherDisplay:10.34,2013-07-27 13:48:00,
2013-07-27 07:53:00,62.9,53.0,30.03,South,190,6.0,6.0,70,0.00,CLR,CLR,0.00,WeatherDisplay:10.34,2013-07-27 13:53:00,
2013-07-27 07:58:00,63.4,52.7,30.02,South,189,7.0,7.0,68,0.00,CLR,CLR,0.00,WeatherDisplay:10.34,2013-07-27 13:58:00,
2013-07-27 08:03:00,63.7,52.5,30.03,South,188,3.0,3.0,67,0.00,CLR,CLR,0.00,WeatherDisplay:10.34,2013-07-27 14:03:00,
2013-07-27 08:08:00,64.0,52.4,30.03,South,188,1.0,1.0,66,0.00,CLR,CLR,0.00,WeatherDisplay:10.34,2013-07-27 14:08:00,
2013-07-27 08:13:00,64.4,51.5,30.03,South,188,3.0,3.0,63,0.00,CLR,CLR,0.00,WeatherDisplay:10.34,2013-07-27 14:13:00,
2013-07-27 08:18:00,64.9,51.6,30.02,South,187,5.0,5.0,62,0.00,CLR,CLR,0.00,WeatherDisplay:10.34,2013-07-27 14:18:00,
2013-07-27 08:23:00,65.5,52.1,30.02,South,188,4.0,4.0,62,0.00,CLR,CLR,0.00,WeatherDisplay:10.34,2013-07-27 14:23:00,
2013-07-27 08:28:00,66.0,51.3,30.02,South,191,4.0,4.0,59,0.00,CLR,CLR,0.00,WeatherDisplay:10.34,2013-07-27 14:28:00,
2013-07-27 08:33:00,66.5,51.3,30.02,South,191,4.0,4.0,58,0.00,CLR,CLR,0.00,WeatherDisplay:10.34,2013-07-27 14:33:00,
2013-07-27 08:39:00,67.0,52.2,30.02,South,191,1.0,2.0,59,0.00,CLR,CLR,0.00,WeatherDisplay:10.34,2013-07-27 14:39:00,
2013-07-27 08:44:00,67.4,51.6,30.02,South,191,2.0,2.0,57,0.00,CLR,CLR,0.00,WeatherDisplay:10.34,2013-07-27 14:44:00,
2013-07-27 08:49:00,67.9,53.0,30.02,SSW,205,5.0,5.0,59,0.00,CLR,CLR,0.00,WeatherDisplay:10.34,2013-07-27 14:49:00,
2013-07-27 08:54:00,68.2,53.3,30.02,SSW,205,4.0,4.0,59,0.00,CLR,CLR,0.00,WeatherDisplay:10.34,2013-07-27 14:54:00,
2013-07-27 08:59:00,68.6,52.8,30.02,SSW,205,1.0,1.0,57,0.00,CLR,CLR,0.00,WeatherDisplay:10.34,2013-07-27 14:59:00,
2013-07-27 09:04:00,69.1,51.8,30.02,SSW,194,3.0,3.0,54,0.00,CLR,CLR,0.00,WeatherDisplay:10.34,2013-07-27 15:04:00,
2013-07-27 09:09:00,69.5,52.1,30.01,South,191,5.0,5.0,54,0.00,CLR,CLR,0.00,WeatherDisplay:10.34,2013-07-27 15:09:00,
2013-07-27 09:14:00,70.0,53.6,30.01,SSW,200,6.0,7.0,56,0.00,CLR,CLR,0.00,WeatherDisplay:10.34,2013-07-27 15:14:00,
2013-07-27 09:19:00,70.4,52.4,30.01,SSW,192,6.0,7.0,53,0.00,CLR,CLR,0.00,WeatherDisplay:10.34,2013-07-27 15:19:00,
2013-07-27 09:24:00,70.9,54.4,30.01,SSW,206,6.0,7.0,56,0.00,CLR,CLR,0.00,WeatherDisplay:10.34,2013-07-27 15:24:00,
2013-07-27 09:29:00,71.3,53.3,30.01,SSW,211,6.0,7.0,53,0.00,CLR,CLR,0.00,WeatherDisplay:10.34,2013-07-27 15:29:00,
2013-07-27 09:34:00,71.8,53.7,30.00,SSW,210,10.0,10.0,53,0.00,CLR,CLR,0.00,WeatherDisplay:10.34,2013-07-27 15:34:00,
2013-07-27 09:39:00,72.1,53.5,30.00,SSW,205,10.0,10.0,52,0.00,CLR,CLR,0.00,WeatherDisplay:10.34,2013-07-27 15:39:00,
2013-07-27 09:44:00,72.1,54.5,30.00,SSW,213,8.0,9.0,54,0.00,CLR,CLR,0.00,WeatherDisplay:10.34,2013-07-27 15:44:00,
2013-07-27 09:49:00,72.3,55.2,30.00,SW,220,9.0,9.0,55,0.00,CLR,CLR,0.00,WeatherDisplay:10.34,2013-07-27 15:49:00,
2013-07-27 09:54:00,72.6,55.5,30.00,SW,219,6.0,7.0,55,0.00,CLR,CLR,0.00,WeatherDisplay:10.34,2013-07-27 15:54:00,
2013-07-27 09:59:00,73.2,54.0,30.00,South,180,7.0,7.0,51,0.00,CLR,CLR,0.00,WeatherDisplay:10.34,2013-07-27 15:59:00,
2013-07-27 10:04:00,73.9,54.1,30.00,SSW,199,5.0,8.0,50,0.00,CLR,CLR,0.00,WeatherDisplay:10.34,2013-07-27 16:04:00,
2013-07-27 10:09:00,74.6,55.8,30.00,SSW,201,7.0,7.0,52,0.00,CLR,CLR,0.00,WeatherDisplay:10.34,2013-07-27 16:09:00,
2013-07-27 10:14:00,75.1,54.1,29.99,South,191,6.0,6.0,48,0.00,CLR,CLR,0.00,WeatherDisplay:10.34,2013-07-27 16:14:00,
2013-07-27 10:19:00,75.7,55.2,29.99,SW,223,4.0,7.0,49,0.00,CLR,CLR,0.00,WeatherDisplay:10.34,2013-07-27 16:19:00,
2013-07-27 10:24:00,76.2,53.3,29.99,SE,134,2.0,2.0,45,0.00,CLR,CLR,0.00,WeatherDisplay:10.34,2013-07-27 16:24:00,
2013-07-27 10:29:00,76.8,53.2,29.99,SW,221,3.0,3.0,44,0.00,CLR,CLR,0.00,WeatherDisplay:10.34,2013-07-27 16:29:00,
2013-07-27 10:34:00,77.3,54.9,29.99,SW,220,3.0,5.0,46,0.00,CLR,CLR,0.00,WeatherDisplay:10.34,2013-07-27 16:34:00,
2013-07-27 10:39:00,77.5,53.9,29.99,SW,215,3.0,0.0,44,0.00,CLR,CLR,0.00,WeatherDisplay:10.34,2013-07-27 16:39:00,
2013-07-27 10:44:00,77.8,54.1,29.98,SW,215,2.0,3.0,44,0.00,CLR,CLR,0.00,WeatherDisplay:10.34,2013-07-27 16:44:00,
2013-07-27 10:49:00,78.4,53.4,29.98,South,186,2.0,7.0,42,0.00,CLR,CLR,0.00,WeatherDisplay:10.34,2013-07-27 16:49:00,
2013-07-27 10:54:00,78.7,53.7,29.99,WSW,240,1.0,2.0,42,0.00,CLR,CLR,0.00,WeatherDisplay:10.34,2013-07-27 16:54:00,
2013-07-27 10:59:00,79.2,52.8,29.98,WSW,240,1.0,1.0,40,0.00,FEW,FEW,0.00,WeatherDisplay:10.34,2013-07-27 16:59:00,
2013-07-27 11:04:00,79.4,56.2,29.98,WSW,240,0.0,1.0,45,0.00,CLR,CLR,0.00,WeatherDisplay:10.34,2013-07-27 17:04:00,
2013-07-27 11:09:00,80.1,53.6,29.98,West,268,2.0,0.0,40,0.00,CLR,CLR,0.00,WeatherDisplay:10.34,2013-07-27 17:09:00,
2013-07-27 11:14:00,80.7,54.1,29.98,SW,217,2.0,3.0,40,0.00,CLR,CLR,0.00,WeatherDisplay:10.34,2013-07-27 17:14:00,
2013-07-27 11:19:00,81.2,53.9,29.98,SW,217,3.0,3.0,39,0.00,CLR,CLR,0.00,WeatherDisplay:10.34,2013-07-27 17:19:00,
2013-07-27 11:24:00,81.5,53.4,29.98,SW,229,3.0,3.0,38,0.00,CLR,CLR,0.00,WeatherDisplay:10.34,2013-07-27 17:24:00,
2013-07-27 11:29:00,82.0,56.6,29.98,SW,235,0.0,0.0,42,0.00,CLR,CLR,0.00,WeatherDisplay:10.34,2013-07-27 17:29:00,
2013-07-27 11:34:00,82.6,55.8,29.98,NNE,24,2.0,3.0,40,0.00,FEW,FEW,0.00,WeatherDisplay:10.34,2013-07-27 17:34:00,
2013-07-27 11:39:00,83.4,55.8,29.98,NNW,343,0.0,0.0,39,0.00,FEW,FEW,0.00,WeatherDisplay:10.34,2013-07-27 17:39:00,
2013-07-27 11:44:00,83.8,53.2,29.97,ENE,65,2.0,3.0,35,0.00,SCT,SCT,0.00,WeatherDisplay:10.34,2013-07-27 17:44:00,
2013-07-27 11:49:00,83.8,51.6,29.97,ENE,66,1.0,0.0,33,0.00,BKN,BKN,0.00,WeatherDisplay:10.34,2013-07-27 17:49:00,
2013-07-27 11:54:00,83.6,48.9,29.97,NE,55,3.0,3.0,30,0.00,BKN,BKN,0.00,WeatherDisplay:10.34,2013-07-27 17:54:00,
2013-07-27 11:59:00,83.2,50.3,29.96,NE,43,3.0,3.0,32,0.00,BKN,BKN,0.00,WeatherDisplay:10.34,2013-07-27 17:59:00,
2013-07-27 12:04:00,83.1,51.0,29.96,ENE,57,1.0,2.0,33,0.00,BKN,BKN,0.00,WeatherDisplay:10.34,2013-07-27 18:04:00,
2013-07-27 12:09:00,83.0,49.2,29.96,ENE,58,1.0,1.0,31,0.00,BKN,BKN,0.00,WeatherDisplay:10.34,2013-07-27 18:09:00,
2013-07-27 12:14:00,83.0,50.1,29.95,SE,127,2.0,2.0,32,0.00,BKN,BKN,0.00,WeatherDisplay:10.34,2013-07-27 18:14:00,
2013-07-27 12:19:00,83.0,51.7,29.95,NE,48,4.0,4.0,34,0.00,BKN,BKN,0.00,WeatherDisplay:10.34,2013-07-27 18:19:00,
2013-07-27 12:24:00,83.0,50.9,29.95,NE,40,3.0,3.0,33,0.00,BKN,BKN,0.00,WeatherDisplay:10.34,2013-07-27 18:24:00,
2013-07-27 12:29:00,83.1,51.8,29.95,NE,40,1.0,0.0,34,0.00,BKN,BKN,0.00,WeatherDisplay:10.34,2013-07-27 18:29:00,
2013-07-27 12:34:00,83.3,52.0,29.95,ENE,78,3.0,3.0,34,0.00,BKN,BKN,0.00,WeatherDisplay:10.34,2013-07-27 18:34:00,
2013-07-27 12:39:00,83.2,51.1,29.95,SSE,157,0.0,0.0,33,0.00,SCT,SCT,0.00,WeatherDisplay:10.34,2013-07-27 18:39:00,
2013-07-27 12:44:00,83.4,51.3,29.94,SSE,167,6.0,7.0,33,0.00,FEW,FEW,0.00,WeatherDisplay:10.34,2013-07-27 18:44:00,
2013-07-27 12:49:00,83.6,53.1,29.94,SSE,165,6.0,0.0,35,0.00,SCT,SCT,0.00,WeatherDisplay:10.34,2013-07-27 18:49:00,
2013-07-27 12:54:00,83.8,50.8,29.94,East,88,9.0,9.0,32,0.00,BKN,BKN,0.00,WeatherDisplay:10.34,2013-07-27 18:54:00,
2013-07-27 12:59:00,83.8,50.8,29.94,East,94,5.0,5.0,32,0.00,SCT,SCT,0.00,WeatherDisplay:10.34,2013-07-27 18:59:00,
2013-07-27 13:04:00,83.8,50.8,29.93,ESE,111,7.0,7.0,32,0.00,BKN,BKN,0.00,WeatherDisplay:10.34,2013-07-27 19:04:00,
2013-07-27 13:09:00,83.7,50.7,29.93,ESE,116,5.0,5.0,32,0.00,BKN,BKN,0.00,WeatherDisplay:10.34,2013-07-27 19:09:00,
2013-07-27 13:14:00,83.6,50.6,29.93,SE,138,5.0,5.0,32,0.00,BKN,BKN,0.00,WeatherDisplay:10.34,2013-07-27 19:14:00,
2013-07-27 13:19:00,83.6,51.5,29.93,SE,130,6.0,7.0,33,0.00,BKN,BKN,0.00,WeatherDisplay:10.34,2013-07-27 19:19:00,
2013-07-27 13:24:00,83.5,50.5,29.93,SSE,167,5.0,7.0,32,0.00,BKN,BKN,0.00,WeatherDisplay:10.34,2013-07-27 19:24:00,
2013-07-27 13:29:00,83.4,52.9,29.93,South,188,11.0,11.0,35,0.00,BKN,BKN,0.00,WeatherDisplay:10.34,2013-07-27 19:29:00,
2013-07-27 13:34:00,83.2,50.3,29.93,SSE,155,7.0,7.0,32,0.00,BKN,BKN,0.00,WeatherDisplay:10.34,2013-07-27 19:34:00,
2013-07-27 13:40:00,82.8,49.9,29.93,South,173,6.0,10.0,32,0.00,BKN,BKN,0.00,WeatherDisplay:10.34,2013-07-27 19:40:00,
2013-07-27 13:45:00,82.7,50.7,29.92,South,186,8.0,8.0,33,0.00,BKN,BKN,0.00,WeatherDisplay:10.34,2013-07-27 19:45:00,
2013-07-27 13:50:00,82.8,50.8,29.92,South,178,10.0,0.0,33,0.00,OVC,OVC,0.00,WeatherDisplay:10.34,2013-07-27 19:50:00,
2013-07-27 13:55:00,82.9,51.6,29.92,SSE,159,7.0,7.0,34,0.00,OVC,OVC,0.00,WeatherDisplay:10.34,2013-07-27 19:55:00,
2013-07-27 14:00:00,82.9,50.8,29.92,South,178,8.0,8.0,33,0.00,BKN,BKN,0.00,WeatherDisplay:10.34,2013-07-27 20:00:00,
2013-07-27 14:05:00,82.8,49.1,29.92,SSW,205,8.0,8.0,31,0.00,OVC,OVC,0.00,WeatherDisplay:10.34,2013-07-27 20:05:00,
2013-07-27 14:10:00,82.9,49.2,29.92,SSW,196,8.0,8.0,31,0.00,OVC,OVC,0.00,WeatherDisplay:10.34,2013-07-27 20:10:00,
2013-07-27 14:15:00,82.9,48.3,29.92,SSW,198,7.0,7.0,30,0.00,OVC,OVC,0.00,WeatherDisplay:10.34,2013-07-27 20:15:00,
2013-07-27 14:20:00,82.9,49.2,29.92,South,187,5.0,5.0,31,0.00,OVC,OVC,0.00,WeatherDisplay:10.34,2013-07-27 20:20:00,
2013-07-27 14:25:00,83.1,49.3,29.92,SSW,198,8.0,8.0,31,0.00,OVC,OVC,0.00,WeatherDisplay:10.34,2013-07-27 20:25:00,
2013-07-27 14:30:00,83.2,49.4,29.92,South,191,8.0,8.0,31,0.00,OVC,OVC,0.00,WeatherDisplay:10.34,2013-07-27 20:30:00,
2013-07-27 14:35:00,83.1,51.8,29.92,South,191,8.0,8.0,34,0.00,OVC,OVC,0.00,WeatherDisplay:10.34,2013-07-27 20:35:00,
2013-07-27 14:40:00,83.2,51.9,29.92,SSW,207,8.0,0.0,34,0.00,OVC,OVC,0.00,WeatherDisplay:10.34,2013-07-27 20:40:00,
2013-07-27 14:45:00,83.2,47.6,29.92,SSW,194,4.0,4.0,29,0.00,OVC,OVC,0.00,WeatherDisplay:10.34,2013-07-27 20:45:00,
2013-07-27 14:50:00,83.3,51.2,29.92,SSW,205,4.0,0.0,33,0.00,OVC,OVC,0.00,WeatherDisplay:10.34,2013-07-27 20:50:00,
2013-07-27 14:55:00,83.3,52.0,29.92,SSW,210,5.0,5.0,34,0.00,OVC,OVC,0.00,WeatherDisplay:10.34,2013-07-27 20:55:00,
2013-07-27 15:00:00,83.3,51.2,29.92,SSW,213,6.0,6.0,33,0.00,OVC,OVC,0.00,WeatherDisplay:10.34,2013-07-27 21:00:00,
2013-07-27 15:05:00,83.1,51.8,29.92,SW,225,5.0,5.0,34,0.00,OVC,OVC,0.00,WeatherDisplay:10.34,2013-07-27 21:05:00,
2013-07-27 15:10:00,82.9,50.8,29.91,SW,227,4.0,4.0,33,0.00,OVC,OVC,0.00,WeatherDisplay:10.34,2013-07-27 21:10:00,
2013-07-27 15:15:00,82.8,53.1,29.91,SW,227,4.0,4.0,36,0.00,OVC,OVC,0.00,WeatherDisplay:10.34,2013-07-27 21:15:00,
2013-07-27 15:20:00,82.7,55.2,29.91,SW,227,3.0,3.0,39,0.00,OVC,OVC,0.00,WeatherDisplay:10.34,2013-07-27 21:20:00,
2013-07-27 15:25:00,82.5,51.3,29.91,SW,227,2.0,2.0,34,0.00,OVC,OVC,0.00,WeatherDisplay:10.34,2013-07-27 21:25:00,
2013-07-27 15:30:00,82.3,50.3,29.90,SW,227,4.0,4.0,33,0.00,OVC,OVC,0.00,WeatherDisplay:10.34,2013-07-27 21:30:00,
2013-07-27 15:35:00,82.3,55.6,29.90,SW,227,4.0,4.0,40,0.00,OVC,OVC,0.00,WeatherDisplay:10.34,2013-07-27 21:35:00,
2013-07-27 15:40:00,82.1,51.7,29.91,SW,225,3.0,3.0,35,0.00,OVC,OVC,0.00,WeatherDisplay:10.34,2013-07-27 21:40:00,
2013-07-27 15:45:00,82.3,51.1,29.90,SSW,207,6.0,6.0,34,0.00,OVC,OVC,0.00,WeatherDisplay:10.34,2013-07-27 21:45:00,
2013-07-27 15:50:00,82.4,50.4,29.90,SSW,208,4.0,5.0,33,0.00,OVC,OVC,0.00,WeatherDisplay:10.34,2013-07-27 21:50:00,
2013-07-27 15:55:00,82.6,52.2,29.90,SSW,208,6.0,6.0,35,0.00,OVC,OVC,0.00,WeatherDisplay:10.34,2013-07-27 21:55:00,
2013-07-27 16:00:00,82.6,50.6,29.90,SSW,200,11.0,11.0,33,0.00,OVC,OVC,0.00,WeatherDisplay:10.34,2013-07-27 22:00:00,
2013-07-27 16:05:00,82.3,49.5,29.90,SW,232,15.0,15.0,32,0.00,BKN,BKN,0.00,WeatherDisplay:10.34,2013-07-27 22:05:00,
2013-07-27 16:10:00,81.9,49.1,29.90,WSW,242,7.0,7.0,32,0.00,BKN,BKN,0.00,WeatherDisplay:10.34,2013-07-27 22:10:00,
2013-07-27 16:15:00,82.1,51.7,29.90,WSW,242,5.0,5.0,35,0.00,FEW,FEW,0.00,WeatherDisplay:10.34,2013-07-27 22:15:00,
2013-07-27 16:20:00,82.7,51.5,29.89,WSW,238,9.0,9.0,34,0.00,FEW,FEW,0.00,WeatherDisplay:10.34,2013-07-27 22:20:00,
2013-07-27 16:25:00,83.6,53.8,29.89,WSW,242,10.0,12.0,36,0.00,FEW,FEW,0.00,WeatherDisplay:10.34,2013-07-27 22:25:00,
2013-07-27 16:30:00,84.2,53.6,29.89,SSW,211,11.0,11.0,35,0.00,FEW,FEW,0.00,WeatherDisplay:10.34,2013-07-27 22:30:00,
2013-07-27 16:35:00,84.1,55.0,29.89,SSW,205,10.0,12.0,37,0.00,BKN,BKN,0.00,WeatherDisplay:10.34,2013-07-27 22:35:00,
2013-07-27 16:40:00,83.6,54.6,29.89,SSW,209,10.0,12.0,37,0.00,BKN,BKN,0.00,WeatherDisplay:10.34,2013-07-27 22:40:00,
2013-07-27 16:45:00,83.6,53.1,29.89,SW,223,8.0,8.0,35,0.00,CLR,CLR,0.00,WeatherDisplay:10.34,2013-07-27 22:45:00,
2013-07-27 16:50:00,83.9,51.7,29.89,West,279,9.0,10.0,33,0.00,SCT,SCT,0.00,WeatherDisplay:10.34,2013-07-27 22:50:00,
2013-07-27 16:55:00,84.1,49.3,29.89,West,281,11.0,11.0,30,0.00,BKN,BKN,0.00,WeatherDisplay:10.34,2013-07-27 22:55:00,
2013-07-27 17:00:00,84.0,47.4,29.89,WSW,256,10.0,10.0,28,0.00,BKN,BKN,0.00,WeatherDisplay:10.34,2013-07-27 23:00:00,
2013-07-27 17:05:00,83.9,48.2,29.88,SW,229,9.0,9.0,29,0.00,BKN,BKN,0.00,WeatherDisplay:10.34,2013-07-27 23:05:00,
2013-07-27 17:10:00,83.6,48.9,29.88,WSW,249,6.0,8.0,30,0.00,SCT,SCT,0.00,WeatherDisplay:10.34,2013-07-27 23:10:00,
2013-07-27 17:15:00,83.5,48.8,29.88,West,260,9.0,9.0,30,0.00,SCT,SCT,0.00,WeatherDisplay:10.34,2013-07-27 23:15:00,
2013-07-27 17:20:00,83.6,51.5,29.88,SW,236,7.0,7.0,33,0.00,BKN,BKN,0.00,WeatherDisplay:10.34,2013-07-27 23:20:00,
2013-07-27 17:25:00,83.6,49.8,29.88,WSW,239,6.0,7.0,31,0.00,BKN,BKN,0.00,WeatherDisplay:10.34,2013-07-27 23:25:00,
2013-07-27 17:30:00,83.4,52.1,29.87,SW,234,7.0,7.0,34,0.00,BKN,BKN,0.00,WeatherDisplay:10.34,2013-07-27 23:30:00,
2013-07-27 17:35:00,82.8,53.1,29.87,SW,214,6.0,8.0,36,0.00,OVC,OVC,0.00,WeatherDisplay:10.34,2013-07-27 23:35:00,
2013-07-27 17:40:00,82.3,52.7,29.88,SW,225,5.0,5.0,36,0.00,OVC,OVC,0.00,WeatherDisplay:10.34,2013-07-27 23:40:00,
2013-07-27 17:45:00,81.8,52.2,29.88,SW,224,3.0,3.0,36,0.00,OVC,OVC,0.00,WeatherDisplay:10.34,2013-07-27 23:45:00,
2013-07-27 17:50:00,81.4,51.1,29.88,SW,224,4.0,4.0,35,0.00,OVC,OVC,0.00,WeatherDisplay:10.34,2013-07-27 23:50:00,
2013-07-27 17:55:00,81.0,53.0,29.88,SW,225,3.0,3.0,38,0.00,OVC,OVC,0.00,WeatherDisplay:10.34,2013-07-27 23:55:00,
2013-07-27 18:00:00,80.6,52.6,29.88,SW,218,5.0,5.0,38,0.00,OVC,OVC,0.00,WeatherDisplay:10.34,2013-07-28 00:00:00,
2013-07-27 18:05:00,80.4,51.7,29.88,SSW,205,5.0,5.0,37,0.00,BKN,BKN,0.00,WeatherDisplay:10.34,2013-07-28 00:05:00,
2013-07-27 18:10:00,80.4,52.5,29.87,SSW,202,6.0,7.0,38,0.00,BKN,BKN,0.00,WeatherDisplay:10.34,2013-07-28 00:10:00,
2013-07-27 18:15:00,80.3,52.4,29.86,SSW,202,7.0,7.0,38,0.00,OVC,OVC,0.00,WeatherDisplay:10.34,2013-07-28 00:15:00,
2013-07-27 18:20:00,80.2,50.8,29.86,SSW,195,8.0,8.0,36,0.00,OVC,OVC,0.00,WeatherDisplay:10.34,2013-07-28 00:20:00,
2013-07-27 18:25:00,80.3,50.9,29.86,SSW,193,8.0,9.0,36,0.00,OVC,OVC,0.00,WeatherDisplay:10.34,2013-07-28 00:25:00,
2013-07-27 18:30:00,80.3,51.7,29.87,SSW,209,6.0,8.0,37,0.00,OVC,OVC,0.00,WeatherDisplay:10.34,2013-07-28 00:30:00,
2013-07-27 18:35:00,80.2,50.8,29.87,SSW,200,4.0,5.0,36,0.00,OVC,OVC,0.00,WeatherDisplay:10.34,2013-07-28 00:35:00,
2013-07-27 18:40:00,80.1,52.9,29.86,SSW,200,4.0,4.0,39,0.00,OVC,OVC,0.00,WeatherDisplay:10.34,2013-07-28 00:40:00,
2013-07-27 18:45:00,79.8,53.3,29.86,SSW,196,6.0,7.0,40,0.00,OVC,OVC,0.00,WeatherDisplay:10.34,2013-07-28 00:45:00,
2013-07-27 18:50:00,79.5,51.7,29.87,South,190,7.0,8.0,38,0.00,OVC,OVC,0.00,WeatherDisplay:10.34,2013-07-28 00:50:00,
2013-07-27 18:55:00,79.3,51.5,29.87,SSW,197,9.0,9.0,38,0.00,OVC,OVC,0.00,WeatherDisplay:10.34,2013-07-28 00:55:00,
2013-07-27 19:00:00,78.8,52.4,29.87,SSW,203,8.0,8.0,40,0.00,OVC,OVC,0.00,WeatherDisplay:10.34,2013-07-28 01:00:00,
2013-07-27 19:05:00,78.7,51.7,29.87,SSW,196,6.0,6.0,39,0.00,OVC,OVC,0.00,WeatherDisplay:10.34,2013-07-28 01:05:00,
2013-07-27 19:10:00,78.5,51.5,29.86,SSW,196,3.0,3.0,39,0.00,OVC,OVC,0.00,WeatherDisplay:10.34,2013-07-28 01:10:00,
2013-07-27 19:15:00,78.3,51.3,29.86,SSW,196,6.0,6.0,39,0.00,OVC,OVC,0.00,WeatherDisplay:10.34,2013-07-28 01:15:00,
2013-07-27 19:20:00,78.0,51.0,29.86,South,185,4.0,4.0,39,0.00,OVC,OVC,0.00,WeatherDisplay:10.34,2013-07-28 01:20:00,
2013-07-27 19:25:00,77.9,48.8,29.86,South,184,6.0,7.0,36,0.00,OVC,OVC,0.00,WeatherDisplay:10.34,2013-07-28 01:25:00,
2013-07-27 19:30:00,77.8,49.4,29.87,South,176,4.0,4.0,37,0.00,OVC,OVC,0.00,WeatherDisplay:10.34,2013-07-28 01:30:00,
2013-07-27 19:35:00,77.6,49.3,29.87,South,175,4.0,4.0,37,0.00,OVC,OVC,0.00,WeatherDisplay:10.34,2013-07-28 01:35:00,
2013-07-27 19:40:00,77.4,49.1,29.87,South,178,5.0,5.0,37,0.00,OVC,OVC,0.00,WeatherDisplay:10.34,2013-07-28 01:40:00,
2013-07-27 19:45:00,77.1,48.8,29.87,SSW,193,7.0,7.0,37,0.00,OVC,OVC,0.00,WeatherDisplay:10.34,2013-07-28 01:45:00,
2013-07-27 19:50:00,76.6,49.8,29.87,SSW,203,8.0,8.0,39,0.00,OVC,OVC,0.00,WeatherDisplay:10.34,2013-07-28 01:50:00,
2013-07-27 19:55:00,76.1,49.3,29.87,SSW,195,9.0,9.0,39,0.00,OVC,OVC,0.00,WeatherDisplay:10.34,2013-07-28 01:55:00,
2013-07-27 20:00:00,75.5,50.1,29.87,South,186,11.0,11.0,41,0.00,OVC,OVC,0.00,WeatherDisplay:10.34,2013-07-28 02:00:00,
2013-07-27 20:05:00,74.9,48.9,29.87,South,191,10.0,10.0,40,0.00,OVC,OVC,0.00,WeatherDisplay:10.34,2013-07-28 02:05:00,
2013-07-27 20:10:00,74.7,49.4,29.87,SSW,200,9.0,9.0,41,0.00,OVC,OVC,0.00,WeatherDisplay:10.34,2013-07-28 02:10:00,
2013-07-27 20:15:00,74.5,49.2,29.87,SSW,202,8.0,8.0,41,0.00,OVC,OVC,0.00,WeatherDisplay:10.34,2013-07-28 02:15:00,
2013-07-27 20:20:00,74.4,49.8,29.87,SSW,210,5.0,5.0,42,0.00,OVC,OVC,0.00,WeatherDisplay:10.34,2013-07-28 02:20:00,
2013-07-27 20:25:00,74.2,50.3,29.87,SSW,207,5.0,5.0,43,0.00,OVC,OVC,0.00,WeatherDisplay:10.34,2013-07-28 02:25:00,
2013-07-27 20:30:00,74.0,48.8,29.86,SW,215,9.0,9.0,41,0.00,OVC,OVC,0.00,WeatherDisplay:10.34,2013-07-28 02:30:00,
2013-07-27 20:35:00,73.9,49.4,29.86,SSW,210,4.0,4.0,42,0.00,OVC,OVC,0.00,WeatherDisplay:10.34,2013-07-28 02:35:00,
2013-07-27 20:40:00,73.7,49.8,29.86,SW,223,5.0,5.0,43,0.00,OVC,OVC,0.00,WeatherDisplay:10.34,2013-07-28 02:40:00,
2013-07-27 20:45:00,73.5,51.4,29.86,SSW,207,4.0,4.0,46,0.00,OVC,OVC,0.00,WeatherDisplay:10.34,2013-07-28 02:45:00,
2013-07-27 20:50:00,73.0,51.6,29.87,SSW,207,3.0,3.0,47,0.00,OVC,OVC,0.00,WeatherDisplay:10.34,2013-07-28 02:50:00,
2013-07-27 20:55:00,72.7,50.1,29.87,SW,235,4.0,4.0,45,0.00,OVC,OVC,0.00,WeatherDisplay:10.34,2013-07-28 02:55:00,
2013-07-27 21:00:00,72.5,49.3,29.87,WSW,248,5.0,5.0,44,0.00,CLR,CLR,0.00,WeatherDisplay:10.34,2013-07-28 03:00:00,
2013-07-27 21:01:00,72.5,49.3,29.87,WSW,253,7.0,8.0,44,0.00,CLR,CLR,0.00,WeatherDisplay:10.34,2013-07-28 03:01:00,
2013-07-27 21:06:00,72.5,48.1,29.87,West,259,5.0,8.0,42,0.00,CLR,CLR,0.00,WeatherDisplay:10.34,2013-07-28 03:06:00,
2013-07-27 21:11:00,72.6,48.2,29.86,SW,234,4.0,4.0,42,0.00,CLR,CLR,0.00,WeatherDisplay:10.34,2013-07-28 03:11:00,
2013-07-27 21:16:00,72.7,48.9,29.86,WNW,283,5.0,7.0,43,0.00,CLR,CLR,0.00,WeatherDisplay:10.34,2013-07-28 03:16:00,
2013-07-27 21:22:00,72.8,47.7,29.88,NW,305,12.0,13.0,41,0.00,CLR,CLR,0.00,WeatherDisplay:10.34,2013-07-28 03:22:00,
2013-07-27 21:27:00,73.9,46.7,29.88,West,273,7.0,7.0,38,0.00,CLR,CLR,0.00,WeatherDisplay:10.34,2013-07-28 03:27:00,
2013-07-27 21:32:00,74.3,46.3,29.88,SW,232,11.0,11.0,37,0.00,CLR,CLR,0.00,WeatherDisplay:10.34,2013-07-28 03:32:00,
2013-07-27 21:37:00,74.8,46.1,29.88,SW,232,8.0,8.0,36,0.00,CLR,CLR,0.00,WeatherDisplay:10.34,2013-07-28 03:37:00,
2013-07-27 21:42:00,75.0,47.7,29.88,SW,223,2.0,2.0,38,0.00,CLR,CLR,0.00,WeatherDisplay:10.34,2013-07-28 03:42:00,
2013-07-27 21:47:00,74.7,48.8,29.88,SSE,151,10.0,10.0,40,0.00,CLR,CLR,0.00,WeatherDisplay:10.34,2013-07-28 03:47:00,
2013-07-27 21:52:00,74.2,48.3,29.89,SSE,149,7.0,7.0,40,0.00,CLR,CLR,0.00,WeatherDisplay:10.34,2013-07-28 03:52:00,
2013-07-27 21:57:00,73.7,49.2,29.89,South,185,11.0,11.0,42,0.00,CLR,CLR,0.00,WeatherDisplay:10.34,2013-07-28 03:57:00,
2013-07-27 22:01:00,73.0,47.9,29.90,SSW,202,11.0,13.0,41,0.00,CLR,CLR,0.00,WeatherDisplay:10.34,2013-07-28 04:01:00,
2013-07-27 22:02:00,72.9,48.5,29.90,SSW,213,11.0,11.0,42,0.00,CLR,CLR,0.00,WeatherDisplay:10.34,2013-07-28 04:02:00,
2013-07-27 22:07:00,72.4,47.4,29.90,SSW,195,11.0,11.0,41,0.00,CLR,CLR,0.00,WeatherDisplay:10.34,2013-07-28 04:07:00,
2013-07-27 22:10:00,72.4,47.4,29.90,SSW,202,8.0,10.0,41,0.00,CLR,CLR,0.00,WeatherDisplay:10.34,2013-07-28 04:10:00,
2013-07-27 22:15:00,73.0,46.6,29.90,South,184,11.0,11.0,39,0.00,CLR,CLR,0.00,WeatherDisplay:10.34,2013-07-28 04:15:00,
2013-07-27 22:20:00,73.3,46.8,29.90,SW,219,11.0,11.0,39,0.00,CLR,CLR,0.00,WeatherDisplay:10.34,2013-07-28 04:20:00,
2013-07-27 22:25:00,73.2,47.4,29.90,SSW,211,10.0,10.0,40,0.00,CLR,CLR,0.00,WeatherDisplay:10.34,2013-07-28 04:25:00,
2013-07-27 22:30:00,72.9,47.8,29.90,SW,230,6.0,6.0,41,0.00,CLR,CLR,0.00,WeatherDisplay:10.34,2013-07-28 04:30:00,
2013-07-27 22:35:00,72.6,48.2,29.90,SSW,213,6.0,6.0,42,0.00,CLR,CLR,0.00,WeatherDisplay:10.34,2013-07-28 04:35:00,
2013-07-27 22:40:00,72.3,48.5,29.90,SW,220,4.0,4.0,43,0.00,CLR,CLR,0.00,WeatherDisplay:10.34,2013-07-28 04:40:00,
2013-07-27 22:45:00,72.0,47.6,29.90,SW,218,1.0,1.0,42,0.00,CLR,CLR,0.00,WeatherDisplay:10.34,2013-07-28 04:45:00,
2013-07-27 22:50:00,71.8,47.5,29.90,South,186,3.0,5.0,42,0.00,CLR,CLR,0.00,WeatherDisplay:10.34,2013-07-28 04:50:00,
2013-07-27 22:55:00,71.5,47.2,29.90,South,186,0.0,0.0,42,0.00,CLR,CLR,0.00,WeatherDisplay:10.34,2013-07-28 04:55:00,
2013-07-27 23:00:00,71.4,48.3,29.90,South,186,1.0,1.0,44,0.00,CLR,CLR,0.00,WeatherDisplay:10.34,2013-07-28 05:00:00,
2013-07-27 23:05:00,71.1,49.3,29.91,SW,223,1.0,1.0,46,0.00,,,0.00,WeatherDisplay:10.34,2013-07-28 05:05:00,
2013-07-27 23:10:00,70.4,48.6,29.91,SW,223,0.0,0.0,46,0.00,,,0.00,WeatherDisplay:10.34,2013-07-28 05:10:00,
2013-07-27 23:15:00,70.1,48.9,29.91,West,271,2.0,2.0,47,0.00,,,0.00,WeatherDisplay:10.34,2013-07-28 05:15:00,
2013-07-27 23:20:00,69.9,48.2,29.89,WNW,302,1.0,2.0,46,0.00,,,0.00,WeatherDisplay:10.34,2013-07-28 05:20:00,
2013-07-27 23:25:00,69.6,48.5,29.89,West,277,3.0,3.0,47,0.00,,,0.00,WeatherDisplay:10.34,2013-07-28 05:25:00,
2013-07-27 23:30:00,69.4,48.3,29.89,West,277,1.0,2.0,47,0.00,,,0.00,WeatherDisplay:10.34,2013-07-28 05:30:00,
2013-07-27 23:35:00,69.3,49.3,29.89,West,277,0.0,0.0,49,0.00,,,0.00,WeatherDisplay:10.34,2013-07-28 05:35:00,
2013-07-27 23:40:00,69.0,49.6,29.90,West,277,1.0,1.0,50,0.00,,,0.00,WeatherDisplay:10.34,2013-07-28 05:40:00,
2013-07-27 23:45:00,68.8,49.9,29.89,West,277,0.0,0.0,51,0.00,,,0.00,WeatherDisplay:10.34,2013-07-28 05:45:00,
2013-07-27 23:50:00,68.3,50.0,29.90,West,277,1.0,1.0,52,0.00,,,0.00,WeatherDisplay:10.34,2013-07-28 05:50:00,
2013-07-27 23:55:00,68.0,49.7,29.90,West,277,0.0,0.0,52,0.00,,,0.00,WeatherDisplay:10.34,2013-07-28 05:55:00,